Time;durP1;ratioP1;P1;durP2;ratioP2;P2;SDS_P1;SDS_P2;PMS_P1;PMS_P2;Temp;Humidity;BMP_temperature;BMP_pressure;BME280_temperature;BME280_humidity;BME280_pressure;Samples;Min_cycle;Max_cycle;Signal;HPM_P1;HPM_P2
2023/12/01 00:00:28;;;;;;;17.58;11.25;;;3.70;99.90;;;;;;4876320;29;20025;-77
2023/12/01 00:02:54;;;;;;;18.13;10.63;;;3.70;99.90;;;;;;4874724;29;20518;-75
2023/12/01 00:05:20;;;;;;;17.42;11.00;;;3.70;99.90;;;;;;4857497;29;20081;-75
2023/12/01 00:07:46;;;;;;;17.30;11.18;;;3.60;99.90;;;;;;4873247;29;20100;-76
2023/12/01 00:10:12;;;;;;;17.35;10.57;;;3.60;99.90;;;;;;4857399;29;20030;-76
2023/12/01 00:12:38;;;;;;;16.80;10.90;;;3.60;99.90;;;;;;4872581;29;20029;-78
2023/12/01 00:15:05;;;;;;;15.57;10.23;;;3.60;99.90;;;;;;4874097;29;20081;-77
2023/12/01 00:17:30;;;;;;;16.73;10.90;;;3.60;99.90;;;;;;4872562;29;20030;-76
2023/12/01 00:19:56;;;;;;;15.95;10.38;;;3.60;99.90;;;;;;4876296;29;20073;-76
2023/12/01 00:22:22;;;;;;;17.38;11.45;;;3.60;99.90;;;;;;4857163;29;20097;-74
2023/12/01 00:24:48;;;;;;;16.50;10.63;;;3.60;99.90;;;;;;4872908;29;20096;-76
2023/12/01 00:27:13;;;;;;;16.75;10.43;;;3.60;99.90;;;;;;4872857;29;20188;-75
2023/12/01 00:29:39;;;;;;;17.98;11.75;;;3.60;99.90;;;;;;4873228;29;20058;-76
2023/12/01 00:32:05;;;;;;;15.50;9.75;;;3.60;99.90;;;;;;4872417;29;20064;-76
2023/12/01 00:34:31;;;;;;;18.08;10.73;;;3.60;99.90;;;;;;4887743;29;20113;-77
2023/12/01 00:37:28;;;;;;;18.15;11.40;;;3.60;99.90;;;;;;4873297;29;20270;-75
2023/12/01 00:39:53;;;;;;;18.58;10.93;;;3.60;99.90;;;;;;4863845;29;20045;-76
2023/12/01 00:42:19;;;;;;;17.65;11.38;;;3.60;99.90;;;;;;4872652;29;20105;-75
2023/12/01 00:44:45;;;;;;;23.92;15.10;;;3.60;99.90;;;;;;4903176;29;20028;-76
2023/12/01 00:47:11;;;;;;;24.35;16.85;;;3.60;99.90;;;;;;4873364;29;20260;-78
2023/12/01 00:49:37;;;;;;;30.13;20.70;;;3.60;99.90;;;;;;4873077;29;20486;-78
2023/12/01 00:52:04;;;;;;;28.10;18.85;;;3.60;99.90;;;;;;4887785;29;20049;-76
2023/12/01 00:54:30;;;;;;;23.23;15.60;;;3.60;99.90;;;;;;4887674;29;20044;-76
2023/12/01 00:56:56;;;;;;;22.75;13.98;;;3.70;99.90;;;;;;4888968;29;20176;-77
2023/12/01 00:59:21;;;;;;;20.77;12.20;;;3.70;99.90;;;;;;4874900;29;20021;-77
2023/12/01 01:01:47;;;;;;;19.10;12.35;;;3.60;99.90;;;;;;4891591;29;20057;-77
2023/12/01 01:04:13;;;;;;;19.77;11.43;;;3.60;99.90;;;;;;4891676;29;20037;-76
2023/12/01 01:06:39;;;;;;;18.25;11.88;;;3.60;99.90;;;;;;4889560;29;20051;-76
2023/12/01 01:09:04;;;;;;;18.95;12.13;;;3.70;99.90;;;;;;4891434;29;20033;-77
2023/12/01 01:11:30;;;;;;;19.20;12.52;;;3.70;99.90;;;;;;4906296;29;20045;-76
2023/12/01 01:14:11;;;;;;;21.30;12.48;;;3.70;99.90;;;;;;4904069;29;20021;-76
2023/12/01 01:16:37;;;;;;;20.67;12.75;;;3.70;99.90;;;;;;4872145;29;20029;-76
2023/12/01 01:19:05;;;;;;;21.55;13.45;;;3.70;99.90;;;;;;4871642;29;20117;-77
2023/12/01 01:21:31;;;;;;;21.27;12.32;;;3.70;99.90;;;;;;4902250;29;20033;-78
2023/12/01 01:24:24;;;;;;;23.20;13.77;;;3.60;99.90;;;;;;4887459;29;20115;-77
2023/12/01 01:26:50;;;;;;;19.63;12.40;;;3.60;99.90;;;;;;4872533;29;20030;-76
2023/12/01 01:29:36;;;;;;;20.10;12.88;;;3.60;99.90;;;;;;4872785;29;20106;-76
2023/12/01 06:07:41;;;;;;;17.70;11.75;;;2.30;99.90;;;;;;5831303;24;20329;31
2023/12/01 06:10:08;;;;;;;16.83;11.43;;;2.40;99.90;;;;;;4866428;29;20346;-79
2023/12/01 06:12:34;;;;;;;16.95;11.30;;;2.30;99.90;;;;;;4870122;29;20338;-77
2023/12/01 06:15:00;;;;;;;18.77;12.50;;;2.40;99.90;;;;;;4870902;29;20037;-76
2023/12/01 06:17:25;;;;;;;16.55;11.48;;;2.40;99.90;;;;;;4873462;29;20315;-76
2023/12/01 06:19:51;;;;;;;16.35;11.70;;;2.40;99.90;;;;;;4870997;29;20042;-77
2023/12/01 06:22:17;;;;;;;18.42;11.88;;;2.40;99.90;;;;;;4871159;29;20052;-76
2023/12/01 06:24:43;;;;;;;15.43;11.05;;;2.30;99.90;;;;;;4864450;29;20033;-74
2023/12/01 06:27:11;;;;;;;17.98;11.75;;;2.30;99.90;;;;;;4851712;29;20038;-76
2023/12/01 06:29:38;;;;;;;17.02;11.60;;;2.30;99.90;;;;;;4855771;29;20042;-77
2023/12/01 06:32:04;;;;;;;15.60;11.98;;;2.30;99.90;;;;;;4836727;29;20045;-77
2023/12/01 06:34:30;;;;;;;14.80;10.98;;;2.20;99.90;;;;;;4836072;29;20053;-76
2023/12/01 06:36:59;;;;;;;16.90;10.95;;;2.30;99.90;;;;;;4850521;29;20211;-76
2023/12/01 06:39:25;;;;;;;16.00;10.85;;;2.20;99.90;;;;;;4851411;29;20045;-76
2023/12/01 06:41:53;;;;;;;16.13;10.98;;;2.30;99.90;;;;;;4857084;29;20037;-76
2023/12/01 06:44:19;;;;;;;14.17;8.50;;;2.30;99.90;;;;;;4871007;29;20306;-76
2023/12/01 06:46:45;;;;;;;17.88;10.90;;;2.30;99.90;;;;;;4850857;29;20062;-76
2023/12/01 06:49:10;;;;;;;15.00;10.15;;;2.30;99.90;;;;;;4850997;29;20097;-76
2023/12/01 06:51:36;;;;;;;17.20;11.38;;;2.20;99.90;;;;;;4851235;29;20312;-76
2023/12/01 06:54:02;;;;;;;16.88;11.45;;;2.20;99.90;;;;;;4850348;29;20053;-76
2023/12/01 06:56:27;;;;;;;17.15;12.30;;;2.10;99.90;;;;;;4851301;29;20215;-76
2023/12/01 06:58:53;;;;;;;15.40;11.18;;;2.10;99.90;;;;;;4850977;29;20033;-76
2023/12/01 07:01:19;;;;;;;16.98;11.43;;;2.00;99.90;;;;;;4855161;29;20033;-75
2023/12/01 07:03:51;;;;;;;16.02;11.27;;;2.00;99.90;;;;;;4850547;29;20065;-77
2023/12/01 07:06:16;;;;;;;15.85;11.25;;;2.10;99.90;;;;;;4852231;29;20027;-77
2023/12/01 07:09:07;;;;;;;18.33;11.00;;;2.10;99.90;;;;;;4850969;29;20361;-77
2023/12/01 07:11:40;;;;;;;16.92;11.15;;;2.20;99.90;;;;;;4851874;29;20041;-77
2023/12/01 07:14:06;;;;;;;14.95;10.65;;;2.20;99.90;;;;;;4852040;29;20051;-78
2023/12/01 07:16:36;;;;;;;16.17;10.82;;;2.20;99.90;;;;;;4861303;29;20045;-78
2023/12/01 07:19:03;;;;;;;17.25;11.40;;;2.20;99.90;;;;;;4856063;29;20367;-78
2023/12/01 07:21:32;;;;;;;17.48;11.73;;;2.20;99.90;;;;;;4850684;29;20041;-79
2023/12/01 07:24:10;;;;;;;16.83;11.25;;;2.30;99.90;;;;;;4851537;29;20042;-78
2023/12/01 07:26:51;;;;;;;15.75;11.13;;;2.20;99.90;;;;;;4850148;29;20054;-79
2023/12/01 07:29:32;;;;;;;18.02;11.68;;;2.20;99.90;;;;;;4850687;29;20044;-80
2023/12/01 07:32:10;;;;;;;15.77;11.82;;;2.30;99.90;;;;;;4851368;29;20033;-77
2023/12/01 07:35:03;;;;;;;16.42;11.95;;;2.30;99.90;;;;;;4851944;29;20061;-76
2023/12/01 07:37:32;;;;;;;19.10;12.13;;;2.30;99.90;;;;;;4870179;29;20342;-78
2023/12/01 07:40:23;;;;;;;17.67;11.52;;;2.40;99.90;;;;;;4869503;29;20199;-78
2023/12/01 07:43:11;;;;;;;16.70;11.50;;;2.40;99.90;;;;;;4831657;29;20050;-76
2023/12/01 07:45:37;;;;;;;18.83;12.02;;;2.40;99.90;;;;;;4832041;29;20045;-77
2023/12/01 07:48:03;;;;;;;17.65;11.77;;;2.50;99.90;;;;;;4813797;29;20047;-76
2023/12/01 07:50:28;;;;;;;17.30;11.90;;;2.50;99.90;;;;;;4812869;29;20046;-79
2023/12/01 07:53:04;;;;;;;16.92;11.65;;;2.50;99.90;;;;;;4812355;29;20094;-78
2023/12/01 07:56:08;;;;;;;16.52;11.05;;;2.40;99.90;;;;;;4813011;29;20062;-77
2023/12/01 07:58:33;;;;;;;16.67;11.48;;;2.40;99.90;;;;;;4812573;29;20039;-77
2023/12/01 08:04:27;;;;;;;21.08;14.95;;;2.40;99.90;;;;;;4794789;30;20101;-77
2023/12/01 08:07:05;;;;;;;20.92;13.32;;;2.30;99.90;;;;;;4794701;30;20047;-79
2023/12/01 08:09:31;;;;;;;18.27;12.93;;;2.30;99.90;;;;;;4795013;30;20043;-78
2023/12/01 08:12:05;;;;;;;16.70;12.13;;;2.30;99.90;;;;;;4795053;30;20085;-78
2023/12/01 08:14:34;;;;;;;18.97;12.50;;;2.30;99.90;;;;;;4795435;29;20062;-77
2023/12/01 08:17:00;;;;;;;17.58;11.73;;;2.40;99.90;;;;;;4797400;30;20291;-77
2023/12/01 08:19:28;;;;;;;17.48;12.27;;;2.40;99.90;;;;;;4804049;29;20054;-76
2023/12/01 08:22:00;;;;;;;17.13;11.48;;;2.50;99.90;;;;;;4819121;29;20046;-76
2023/12/01 08:24:25;;;;;;;16.98;11.75;;;2.60;99.90;;;;;;4834540;29;20221;-76
2023/12/01 08:26:51;;;;;;;15.95;11.95;;;2.60;99.90;;;;;;4834379;29;20076;-77
2023/12/01 08:29:19;;;;;;;18.73;12.30;;;2.60;99.90;;;;;;4834571;29;20038;-75
2023/12/01 08:31:45;;;;;;;;;;;2.50;99.90;;;;;;4819610;29;20034;-76
2023/12/01 08:34:11;;;;;;;18.20;11.63;;;2.50;99.90;;;;;;4833858;29;19959;-78
2023/12/01 08:36:37;;;;;;;19.52;11.40;;;2.50;99.90;;;;;;4834604;29;20022;-77
2023/12/01 08:39:04;;;;;;;16.45;11.27;;;2.50;99.90;;;;;;4833892;29;20078;-76
2023/12/01 08:41:29;;;;;;;16.33;11.63;;;2.50;99.90;;;;;;4860318;29;20339;-77
2023/12/01 08:43:56;;;;;;;19.15;11.88;;;2.50;99.90;;;;;;4872403;29;20056;-76
2023/12/01 08:46:21;;;;;;;16.88;12.02;;;2.60;99.90;;;;;;4873045;29;20025;-77
2023/12/01 08:48:47;;;;;;;14.50;10.68;;;2.60;99.90;;;;;;4872768;29;20033;-77
2023/12/01 08:51:13;;;;;;;16.25;11.32;;;2.70;99.90;;;;;;4867062;29;20017;-76
2023/12/01 08:53:39;;;;;;;14.60;10.73;;;2.80;99.90;;;;;;4853969;29;20053;-76
2023/12/01 08:56:08;;;;;;;14.07;10.15;;;2.80;99.90;;;;;;4853910;29;20045;-76
2023/12/01 08:58:34;;;;;;;15.52;10.52;;;2.90;99.90;;;;;;4853386;29;20029;-77
2023/12/01 09:01:06;;;;;;;14.90;10.23;;;2.90;99.90;;;;;;4837627;29;20045;-77
2023/12/01 09:03:31;;;;;;;14.23;11.02;;;3.00;99.90;;;;;;4854319;29;20041;-76
2023/12/01 09:05:57;;;;;;;17.23;11.10;;;3.00;99.90;;;;;;4853438;29;20047;-77
2023/12/01 09:08:22;;;;;;;16.50;11.23;;;3.00;99.90;;;;;;4856111;29;20153;-75
2023/12/01 09:11:17;;;;;;;16.52;11.23;;;2.80;99.90;;;;;;4853442;29;20100;-75
2023/12/01 09:13:46;;;;;;;14.80;11.20;;;2.80;99.90;;;;;;4852837;29;20033;-76
2023/12/01 09:16:11;;;;;;;18.25;11.90;;;2.80;99.90;;;;;;4861342;29;20042;-76
2023/12/01 09:18:41;;;;;;;14.07;10.15;;;2.90;99.90;;;;;;4872119;29;20032;-76
2023/12/01 09:21:07;;;;;;;14.27;10.45;;;3.10;99.90;;;;;;4871948;29;20113;-76
2023/12/01 09:23:33;;;;;;;14.77;10.90;;;3.20;99.90;;;;;;4871405;29;20085;-76
2023/12/01 09:25:59;;;;;;;15.05;10.90;;;3.30;99.90;;;;;;4861065;29;20030;-74
2023/12/01 09:28:55;;;;;;;15.02;10.85;;;3.40;99.90;;;;;;4877258;29;20357;-77
2023/12/01 09:31:24;;;;;;;15.68;10.25;;;3.40;99.90;;;;;;4869563;29;20036;-76
2023/12/01 09:33:53;;;;;;;13.48;10.27;;;3.40;99.90;;;;;;4890201;29;20303;-77
2023/12/01 09:36:18;;;;;;;14.98;10.77;;;3.40;99.90;;;;;;4876024;29;20017;-77
2023/12/01 09:38:49;;;;;;;14.80;10.75;;;3.40;99.90;;;;;;4872207;29;20265;-76
2023/12/01 09:41:35;;;;;;;14.40;10.35;;;3.30;99.90;;;;;;4864279;29;20065;-75
2023/12/01 09:44:09;;;;;;;15.82;11.27;;;3.30;99.90;;;;;;4861385;29;20040;-77
2023/12/01 09:46:36;;;;;;;14.07;10.85;;;3.20;99.90;;;;;;4871929;29;20052;-77
2023/12/01 09:49:06;;;;;;;14.75;10.85;;;3.20;99.90;;;;;;4871755;29;20029;-77
2023/12/01 09:51:34;;;;;;;16.13;11.18;;;3.10;99.90;;;;;;4870777;29;20045;-79
2023/12/01 09:54:02;;;;;;;14.55;10.45;;;3.00;99.90;;;;;;4871638;29;20021;-77
2023/12/01 09:56:28;;;;;;;16.77;11.02;;;3.00;99.90;;;;;;4869981;29;20030;-76
2023/12/01 09:58:57;;;;;;;15.20;11.40;;;3.10;99.90;;;;;;4854214;29;20322;-76
2023/12/01 10:01:27;;;;;;;16.67;11.40;;;3.20;99.90;;;;;;4861865;29;20033;-76
2023/12/01 10:03:56;;;;;;;16.73;10.68;;;3.20;99.90;;;;;;4871107;29;20052;-76
2023/12/01 10:06:22;;;;;;;16.23;11.40;;;3.20;99.90;;;;;;4871507;29;20048;-75
2023/12/01 10:08:51;;;;;;;14.82;10.98;;;3.30;99.90;;;;;;4871286;29;20049;-76
2023/12/01 10:11:26;;;;;;;15.63;11.02;;;3.20;99.90;;;;;;4871969;29;20077;-76
2023/12/01 10:13:52;;;;;;;15.57;11.02;;;3.20;99.90;;;;;;4871269;29;20156;-75
2023/12/01 10:16:30;;;;;;;17.77;12.93;;;3.20;99.90;;;;;;4867371;29;20115;-76
2023/12/01 10:19:06;;;;;;;15.80;10.90;;;3.20;99.90;;;;;;4885271;29;20089;-75
2023/12/01 10:21:51;;;;;;;16.92;11.55;;;3.30;99.90;;;;;;4870445;29;20318;-75
2023/12/01 10:24:27;;;;;;;16.38;11.63;;;3.30;99.90;;;;;;4871365;29;20029;-75
2023/12/01 10:26:56;;;;;;;17.55;12.30;;;3.20;99.90;;;;;;4854351;29;20318;-75
2023/12/01 10:29:48;;;;;;;17.58;12.27;;;3.10;99.90;;;;;;4870481;29;20108;-77
2023/12/01 10:32:17;;;;;;;30.90;16.17;;;3.10;99.90;;;;;;4865168;29;20057;-77
2023/12/01 10:34:52;;;;;;;29.73;14.88;;;3.00;99.90;;;;;;4856081;29;20096;-78
2023/12/01 10:37:19;;;;;;;21.70;13.35;;;3.00;99.90;;;;;;4870125;29;20234;-75
2023/12/01 10:40:37;;;;;;;21.42;13.10;;;2.90;99.90;;;;;;4869927;29;20049;-76
2023/12/01 10:43:13;;;;;;;21.27;13.23;;;2.90;99.90;;;;;;4817360;29;20069;-75
2023/12/01 10:45:39;;;;;;;21.45;13.88;;;2.90;99.90;;;;;;4832533;29;20054;-76
2023/12/01 10:48:06;;;;;;;19.60;13.52;;;2.90;99.90;;;;;;4816679;29;20104;-76
2023/12/01 10:50:36;;;;;;;22.25;15.15;;;2.90;99.90;;;;;;4831752;29;20052;-75
2023/12/01 10:53:10;;;;;;;21.02;15.15;;;2.80;99.90;;;;;;4835129;29;20113;-75
2023/12/01 10:55:36;;;;;;;22.08;14.75;;;2.80;99.90;;;;;;4870824;29;20037;-77
2023/12/01 10:58:46;;;;;;;24.90;14.93;;;2.80;99.90;;;;;;4870198;29;20036;-75
2023/12/01 11:01:14;;;;;;;21.42;14.15;;;2.70;99.90;;;;;;4816292;29;20454;-75
2023/12/01 11:03:47;;;;;;;21.85;14.57;;;2.70;99.90;;;;;;4864746;29;20057;-75
2023/12/01 11:06:46;;;;;;;21.52;14.93;;;2.60;99.90;;;;;;4869204;29;20021;-75
2023/12/01 11:09:24;;;;;;;24.48;15.10;;;2.70;99.90;;;;;;4851412;29;20064;-75
2023/12/01 11:12:27;;;;;;;23.13;14.95;;;2.70;99.90;;;;;;4852298;29;20041;-76
2023/12/01 11:14:54;;;;;;;23.13;15.00;;;2.80;99.90;;;;;;4873414;29;20051;-74
2023/12/01 11:18:31;;;;;;;20.83;14.07;;;2.80;99.90;;;;;;4872331;29;20092;-76
2023/12/01 11:21:56;;;;;;;21.98;14.63;;;2.80;99.90;;;;;;4795689;30;20352;-77
2023/12/01 11:24:50;;;;;;;22.48;14.95;;;2.80;99.90;;;;;;4791577;29;20317;-75
2023/12/01 11:27:24;;;;;;;24.50;14.85;;;2.80;99.90;;;;;;4795116;29;20043;-75
2023/12/01 11:30:29;;;;;;;23.02;15.43;;;2.70;99.90;;;;;;4795484;29;20063;-75
2023/12/01 11:33:33;;;;;;;24.88;15.45;;;2.80;99.90;;;;;;4794246;29;20208;-77
2023/12/01 12:22:54;;;;;;;30.55;17.92;;;2.80;99.90;;;;;;4699395;30;20091;-77
2023/12/01 12:34:14;;;;;;;;;;;;;;;;;;;;;
2023/12/01 13:19:52;;;;;;;35.03;21.25;;;2.70;99.90;;;;;;5722146;23;20131;-77
2023/12/01 14:23:47;;;;;;;35.45;19.90;;;2.20;99.90;;;;;;5890756;23;20048;31
2023/12/01 14:26:12;;;;;;;33.42;19.33;;;2.10;99.90;;;;;;4870101;29;20061;-80
2023/12/01 14:28:39;;;;;;;36.22;20.67;;;2.20;99.90;;;;;;4870399;29;20040;-80
2023/12/01 14:31:10;;;;;;;33.35;20.45;;;2.20;99.90;;;;;;4851970;29;20033;-79
2023/12/01 14:33:36;;;;;;;32.90;19.92;;;2.10;99.90;;;;;;4870408;29;20040;-78
2023/12/01 14:36:10;;;;;;;32.70;19.98;;;2.10;99.90;;;;;;4863082;29;20298;-80
2023/12/01 14:38:48;;;;;;;35.50;20.63;;;2.10;99.90;;;;;;4869324;29;20065;-77
2023/12/01 14:41:17;;;;;;;35.05;20.17;;;2.00;99.90;;;;;;4853103;29;20025;-77
2023/12/01 14:43:58;;;;;;;35.03;20.10;;;2.00;99.90;;;;;;4870011;29;20195;-77
2023/12/01 14:46:39;;;;;;;34.03;20.27;;;2.00;99.90;;;;;;4869683;29;20029;-77
2023/12/01 14:49:05;;;;;;;34.30;19.98;;;2.00;99.90;;;;;;4877285;29;20048;-79
2023/12/01 14:51:31;;;;;;;38.05;20.85;;;2.00;99.90;;;;;;4899388;29;20063;-76
2023/12/01 14:53:57;;;;;;;36.78;20.88;;;2.00;99.90;;;;;;4888279;29;20029;-77
2023/12/01 14:56:29;;;;;;;37.45;20.98;;;2.00;99.90;;;;;;4887342;29;20028;-76
2023/12/01 14:58:54;;;;;;;35.72;20.60;;;2.10;99.90;;;;;;4888627;29;20033;-76
2023/12/01 15:01:35;;;;;;;35.72;20.17;;;2.10;99.90;;;;;;4887487;29;20037;-77
2023/12/01 15:04:12;;;;;;;39.22;20.35;;;2.20;99.90;;;;;;4886542;29;20327;-76
2023/12/01 15:06:41;;;;;;;41.30;20.73;;;2.10;99.90;;;;;;4873856;29;20045;-77
2023/12/01 15:09:10;;;;;;;38.83;19.90;;;2.10;99.90;;;;;;4850833;29;20037;-77
2023/12/01 15:11:41;;;;;;;35.80;20.65;;;2.10;99.90;;;;;;4834847;29;20046;-77
2023/12/01 15:14:07;;;;;;;37.05;20.83;;;2.10;99.90;;;;;;4834986;29;20033;-76
2023/12/01 15:16:39;;;;;;;37.55;21.45;;;2.10;99.90;;;;;;4850478;29;20033;-77
2023/12/01 15:19:08;;;;;;;39.35;21.25;;;2.00;99.90;;;;;;4835045;29;20323;-77
2023/12/01 15:29:55;;;;;;;34.83;19.95;;;1.90;99.90;;;;;;4869351;29;20296;-76
2023/12/01 15:44:23;;;;;;;38.17;19.88;;;1.90;99.90;;;;;;4812012;29;20176;-77
2023/12/01 15:51:35;;;;;;;33.40;19.17;;;1.90;99.90;;;;;;4706342;30;20044;-75
2023/12/01 15:54:21;;;;;;;37.20;20.42;;;2.00;99.90;;;;;;4699194;30;20148;-75
2023/12/01 15:57:02;;;;;;;39.10;20.02;;;1.90;99.90;;;;;;4701473;30;20053;-75
2023/12/01 15:59:30;;;;;;;39.05;20.17;;;1.90;99.90;;;;;;4691376;30;20042;-76
2023/12/01 16:02:23;;;;;;;37.40;19.45;;;1.90;99.90;;;;;;4694335;30;20221;-76
2023/12/01 16:05:40;;;;;;;35.92;19.10;;;1.90;99.90;;;;;;4691215;30;20038;-76
2023/12/01 16:20:55;;;;;;;38.75;21.33;;;1.80;99.90;;;;;;4604044;31;20035;-77
2023/12/01 16:27:51;;;;;;;38.95;19.60;;;1.70;99.90;;;;;;4663589;30;20109;-76
2023/12/01 16:30:17;;;;;;;36.33;19.75;;;1.80;99.90;;;;;;4655029;30;20154;-76
2023/12/01 16:32:42;;;;;;;40.72;20.75;;;1.70;99.90;;;;;;4636335;30;20050;-75
2023/12/01 16:35:10;;;;;;;41.50;20.83;;;1.70;99.90;;;;;;4639844;30;20106;-75
2023/12/01 16:37:36;;;;;;;42.60;21.55;;;1.70;99.90;;;;;;4657100;30;20051;-76
2023/12/01 16:40:04;;;;;;;38.75;20.40;;;1.70;99.90;;;;;;4654438;30;20376;-76
2023/12/01 16:42:31;;;;;;;41.38;19.50;;;1.70;99.90;;;;;;4640097;30;20120;-76
2023/12/01 16:44:57;;;;;;;40.83;20.40;;;1.80;99.90;;;;;;4640562;30;20055;-75
2023/12/01 16:47:26;;;;;;;42.95;20.15;;;1.80;99.90;;;;;;4639905;30;20061;-75
2023/12/01 16:49:54;;;;;;;40.33;20.30;;;1.80;99.90;;;;;;4656049;30;20055;-75
2023/12/01 16:52:19;;;;;;;41.13;19.92;;;1.80;99.90;;;;;;4734500;30;20051;-76
2023/12/01 16:55:12;;;;;;;41.13;19.63;;;1.80;99.90;;;;;;4778396;30;20039;-75
2023/12/01 16:57:41;;;;;;;43.40;20.80;;;1.70;99.90;;;;;;4818537;29;20063;-76
2023/12/01 17:00:10;;;;;;;46.10;22.23;;;1.70;99.90;;;;;;4867926;29;20375;-77
2023/12/01 17:02:45;;;;;;;42.00;20.33;;;1.70;99.90;;;;;;4881394;29;20033;-77
2023/12/01 17:05:13;;;;;;;41.67;20.45;;;1.70;99.90;;;;;;4890332;29;20041;-77
2023/12/01 17:07:39;;;;;;;45.55;21.92;;;1.70;99.90;;;;;;4890221;29;20227;-78
2023/12/01 17:10:05;;;;;;;40.80;20.67;;;1.70;99.90;;;;;;4891352;29;20099;-78
2023/12/01 17:12:31;;;;;;;42.67;20.25;;;1.70;99.90;;;;;;4872681;29;20033;-76
2023/12/01 17:14:57;;;;;;;39.83;20.20;;;1.60;99.90;;;;;;4893007;29;20040;-76
2023/12/01 17:17:25;;;;;;;41.90;20.40;;;1.70;99.90;;;;;;4857750;29;20026;-77
2023/12/01 17:19:54;;;;;;;42.47;20.38;;;1.60;99.90;;;;;;4874242;29;20104;-76
2023/12/01 17:22:21;;;;;;;45.83;20.73;;;1.70;99.90;;;;;;4855279;29;20049;-75
2023/12/01 17:24:50;;;;;;;40.00;19.67;;;1.60;99.90;;;;;;4872955;29;20021;-78
2023/12/01 17:27:16;;;;;;;40.78;19.88;;;1.70;99.90;;;;;;4872240;29;20071;-76
2023/12/01 17:29:42;;;;;;;40.47;20.60;;;1.60;99.90;;;;;;4845838;29;20320;-77
2023/12/01 17:32:09;;;;;;;41.92;20.42;;;1.60;99.90;;;;;;4853754;29;20041;-78
2023/12/01 17:34:35;;;;;;;40.40;20.20;;;1.70;99.90;;;;;;4856854;29;20021;-79
2023/12/01 17:37:02;;;;;;;44.63;20.60;;;1.70;99.90;;;;;;4872185;29;20105;-78
2023/12/01 17:39:28;;;;;;;43.92;21.10;;;1.60;99.90;;;;;;4855298;29;20346;-79
2023/12/01 17:41:53;;;;;;;44.30;19.30;;;1.60;99.90;;;;;;4872060;29;20037;-77
2023/12/01 17:44:19;;;;;;;46.35;21.20;;;1.60;99.90;;;;;;4855421;29;20211;-78
2023/12/01 17:46:48;;;;;;;46.28;20.50;;;1.60;99.90;;;;;;4867954;29;20021;-78
2023/12/01 17:49:14;;;;;;;42.40;21.17;;;1.70;99.90;;;;;;4836997;29;20062;-78
2023/12/01 17:51:43;;;;;;;42.40;19.50;;;1.70;99.90;;;;;;4836792;29;20262;-77
2023/12/01 17:54:09;;;;;;;45.22;19.70;;;1.70;99.90;;;;;;4853634;29;20032;-76
2023/12/01 17:56:35;;;;;;;40.83;19.40;;;1.70;99.90;;;;;;4853343;29;20060;-80
2023/12/01 17:59:02;;;;;;;41.30;19.98;;;1.70;99.90;;;;;;4854100;29;20037;-78
2023/12/01 18:01:39;;;;;;;45.38;20.30;;;1.70;99.90;;;;;;4853064;29;20138;-79
2023/12/01 18:04:05;;;;;;;40.90;20.30;;;1.80;99.90;;;;;;4856571;29;20026;-77
2023/12/01 18:06:31;;;;;;;43.75;21.23;;;1.70;99.90;;;;;;4836879;29;20070;-79
2023/12/01 18:08:57;;;;;;;41.40;20.13;;;1.70;99.90;;;;;;4853633;29;20032;-78
2023/12/01 18:11:29;;;;;;;45.15;20.33;;;1.80;99.90;;;;;;4836695;29;20057;-80
2023/12/01 18:13:55;;;;;;;44.47;19.98;;;1.80;99.90;;;;;;4836825;29;20072;-78
2023/12/01 18:16:26;;;;;;;40.92;18.65;;;1.70;99.90;;;;;;4865059;29;20026;-78
2023/12/01 18:18:52;;;;;;;40.25;19.70;;;1.70;99.90;;;;;;4855098;29;20112;-77
2023/12/01 18:21:17;;;;;;;40.25;19.17;;;1.70;99.90;;;;;;4871396;29;20074;-77
2023/12/01 18:23:43;;;;;;;38.55;18.65;;;1.70;99.90;;;;;;4871126;29;20033;-77
2023/12/01 18:26:15;;;;;;;42.67;20.65;;;1.80;99.90;;;;;;4871386;29;20065;-77
2023/12/01 18:28:42;;;;;;;36.90;19.58;;;1.80;99.90;;;;;;4871137;29;20065;-78
2023/12/01 18:31:14;;;;;;;39.40;18.65;;;1.80;99.90;;;;;;4871535;29;20088;-77
2023/12/01 18:33:40;;;;;;;38.13;18.70;;;1.80;99.90;;;;;;4856634;29;20041;-77
2023/12/01 18:36:06;;;;;;;40.55;18.90;;;1.70;99.90;;;;;;4867680;29;20045;-78
2023/12/01 18:38:32;;;;;;;40.83;20.15;;;1.70;99.90;;;;;;4870643;29;20029;-78
2023/12/01 18:40:57;;;;;;;42.53;19.05;;;1.70;99.90;;;;;;4871142;29;20093;-77
2023/12/01 18:43:27;;;;;;;40.97;19.63;;;1.70;99.90;;;;;;4854138;29;20064;-77
2023/12/01 18:45:52;;;;;;;40.13;19.30;;;1.70;99.90;;;;;;4854240;29;20022;-77
2023/12/01 18:48:18;;;;;;;41.35;19.38;;;1.70;99.90;;;;;;4870987;29;20307;-77
2023/12/01 18:50:51;;;;;;;40.53;20.48;;;1.60;99.90;;;;;;4852185;29;20045;-78
2023/12/01 18:57:07;;;;;;;37.20;18.70;;;1.70;99.90;;;;;;4852695;29;20024;-78
2023/12/01 18:59:40;;;;;;;43.03;19.65;;;1.70;99.90;;;;;;4834524;29;20064;-78
2023/12/01 19:02:15;;;;;;;38.92;18.63;;;1.70;99.90;;;;;;4852358;29;20041;-79
2023/12/01 19:04:41;;;;;;;39.03;18.65;;;1.80;99.90;;;;;;4852495;29;20041;-80
2023/12/01 19:07:10;;;;;;;37.15;18.52;;;1.70;99.90;;;;;;4856669;29;20212;-80
2023/12/01 19:09:35;;;;;;;36.00;18.35;;;1.70;99.90;;;;;;4870806;29;20070;-80
2023/12/01 19:12:01;;;;;;;40.55;20.23;;;1.70;99.90;;;;;;4854647;29;20100;-79
2023/12/01 19:14:27;;;;;;;40.20;19.20;;;1.70;99.90;;;;;;4870758;29;20040;-79
2023/12/01 19:16:56;;;;;;;37.47;19.02;;;1.70;99.90;;;;;;4858760;29;20338;-78
2023/12/01 19:19:22;;;;;;;37.95;19.52;;;1.70;99.90;;;;;;4853705;29;20030;-78
2023/12/01 19:21:47;;;;;;;37.58;18.80;;;1.70;99.90;;;;;;4853207;29;20395;-78
2023/12/01 19:24:16;;;;;;;37.92;18.75;;;1.70;99.90;;;;;;4853155;29;20216;-79
2023/12/01 19:26:42;;;;;;;39.13;19.42;;;1.80;99.90;;;;;;4869632;29;20060;-79
2023/12/01 19:29:13;;;;;;;35.60;18.60;;;1.70;99.90;;;;;;4854389;29;20335;-80
2023/12/01 19:31:46;;;;;;;36.67;18.88;;;1.70;99.90;;;;;;4855648;29;20026;-78
2023/12/01 19:34:33;;;;;;;36.90;17.45;;;1.70;99.90;;;;;;4854538;29;20025;-79
2023/12/01 19:37:07;;;;;;;34.03;16.98;;;1.60;99.90;;;;;;4836299;29;20316;-81
2023/12/01 19:39:33;;;;;;;32.67;16.75;;;1.50;99.90;;;;;;4851635;29;20033;-80
2023/12/01 19:42:02;;;;;;;34.45;17.92;;;1.60;99.90;;;;;;4839046;29;20061;-80
2023/12/01 19:44:31;;;;;;;34.25;16.92;;;1.60;99.90;;;;;;4835794;29;20041;-81
2023/12/01 19:46:57;;;;;;;33.33;17.42;;;1.60;99.90;;;;;;4835894;29;20229;-80
2023/12/01 19:49:23;;;;;;;30.65;15.85;;;1.60;99.90;;;;;;4852525;29;20037;-79
2023/12/01 19:51:51;;;;;;;33.45;16.38;;;1.60;99.90;;;;;;4836389;29;20037;-80
2023/12/01 19:54:20;;;;;;;32.95;16.55;;;1.50;99.90;;;;;;4852791;29;20040;-80
2023/12/01 19:56:49;;;;;;;31.77;17.05;;;1.50;99.90;;;;;;4851301;29;20044;-79
2023/12/01 19:59:18;;;;;;;32.95;17.23;;;1.40;99.90;;;;;;4844706;29;20024;-79
2023/12/01 20:01:47;;;;;;;32.53;16.52;;;1.40;99.90;;;;;;4853434;29;20049;-79
2023/12/01 20:05:09;;;;;;;33.97;18.20;;;1.40;99.90;;;;;;4840168;29;20037;-80
2023/12/01 20:07:35;;;;;;;31.00;16.85;;;1.40;99.90;;;;;;4837700;29;20412;-80
2023/12/01 20:10:36;;;;;;;34.15;17.02;;;1.40;99.90;;;;;;4869612;29;20042;-79
2023/12/01 20:13:05;;;;;;;29.90;16.20;;;1.50;99.90;;;;;;4856900;29;20038;-78
2023/12/01 20:15:49;;;;;;;33.92;16.58;;;1.50;99.90;;;;;;4870860;29;20303;-79
2023/12/01 20:18:34;;;;;;;34.10;16.85;;;1.50;99.90;;;;;;4857042;29;20026;-78
2023/12/01 20:21:03;;;;;;;37.53;18.55;;;1.50;99.90;;;;;;4855715;29;20368;-79
2023/12/01 20:23:29;;;;;;;34.70;17.77;;;1.50;99.90;;;;;;4861856;29;20081;-80
2023/12/01 20:31:57;;;;;;;33.75;16.63;;;1.50;99.90;;;;;;4835663;29;20045;-79
2023/12/01 20:34:59;;;;;;;33.42;17.13;;;1.50;99.90;;;;;;4837802;29;20048;-80
2023/12/01 20:51:25;;;;;;;32.35;16.80;;;1.50;99.90;;;;;;4929080;29;20096;-81
2023/12/01 20:53:50;;;;;;;31.48;17.10;;;1.40;99.90;;;;;;4928845;29;20036;-78
2023/12/01 20:56:16;;;;;;;30.98;17.02;;;1.50;99.90;;;;;;4930770;29;20027;-79
2023/12/01 20:59:23;;;;;;;31.85;17.35;;;1.40;99.90;;;;;;4912264;29;20075;-77
2023/12/01 21:02:39;;;;;;;32.63;16.52;;;1.50;99.90;;;;;;4910341;29;20032;-80
2023/12/01 21:05:57;;;;;;;33.13;17.23;;;1.50;99.90;;;;;;4895550;29;20188;-80
2023/12/01 21:13:00;;;;;;;32.67;16.33;;;1.50;99.90;;;;;;4927154;29;20214;-79
2023/12/01 21:19:13;;;;;;;33.00;16.67;;;1.60;99.90;;;;;;4947547;29;20018;-79
2023/12/01 21:21:42;;;;;;;30.27;16.83;;;1.60;99.90;;;;;;4931195;29;20237;-77
2023/12/01 21:24:07;;;;;;;33.95;18.35;;;1.60;99.90;;;;;;4930667;29;20087;-78
2023/12/01 21:26:39;;;;;;;31.60;16.65;;;1.60;99.90;;;;;;4930546;29;20016;-77
2023/12/01 21:29:05;;;;;;;29.58;16.52;;;1.60;99.90;;;;;;4947973;29;20031;-76
2023/12/01 21:31:33;;;;;;;30.08;15.93;;;1.60;99.90;;;;;;4947961;29;20039;-78
2023/12/01 21:33:59;;;;;;;31.23;16.58;;;1.60;99.90;;;;;;4915932;29;20318;-76